createdAt,value
2018-12-17T00:00:28.896Z,99368.92
2018-12-17T00:02:58.689Z,99371.16
2018-12-17T00:05:30.550Z,99371.97
2018-12-17T00:08:00.614Z,99377.61
2018-12-17T00:10:31.021Z,99377.93
2018-12-17T00:13:00.697Z,99378.38
2018-12-17T00:15:34.104Z,99376.11
2018-12-17T00:18:04.457Z,99380.16
2018-12-17T00:20:39.093Z,99381.81
2018-12-17T00:23:10.985Z,99375.95
2018-12-17T00:25:41.005Z,99356.38
2018-12-17T00:28:11.662Z,99380.29
2018-12-17T00:30:41.236Z,99378.50
2018-12-17T00:33:12.739Z,99377.21
2018-12-17T00:35:42.430Z,99388.20
2018-12-17T00:38:12.569Z,99382.32
2018-12-17T00:40:44.727Z,99383.55
2018-12-17T00:43:14.256Z,99387.75
2018-12-17T00:45:43.970Z,99385.77
2018-12-17T00:48:13.673Z,99387.72
2018-12-17T00:50:43.417Z,99389.81
2018-12-17T00:53:13.223Z,99396.47
2018-12-17T00:55:42.769Z,99389.53
2018-12-17T00:58:15.276Z,99393.27
2018-12-17T01:00:45.020Z,99398.78
2018-12-17T01:03:14.809Z,99403.48
2018-12-17T01:05:44.492Z,99402.31
2018-12-17T01:08:14.209Z,99409.64
2018-12-17T01:10:44.113Z,99409.48
2018-12-17T01:13:13.863Z,99408.80
2018-12-17T01:15:43.839Z,99414.80
2018-12-17T01:18:14.794Z,99415.77
2018-12-17T01:20:44.894Z,99422.45
2018-12-17T01:23:14.654Z,99425.53
2018-12-17T01:25:45.764Z,99430.23
2018-12-17T01:28:22.158Z,99431.21
2018-12-17T01:30:48.593Z,99427.81
2018-12-17T01:33:20.140Z,99430.85
2018-12-17T01:35:50.313Z,99434.75
2018-12-17T01:38:20.211Z,99432.34
2018-12-17T01:40:50.041Z,99434.09
2018-12-17T01:43:20.629Z,99435.23
2018-12-17T01:45:50.539Z,99426.63
2018-12-17T01:48:20.644Z,99426.15
2018-12-17T01:50:50.559Z,99423.52
2018-12-17T01:53:19.994Z,99425.30
2018-12-17T01:55:50.023Z,99427.36
2018-12-17T01:58:20.291Z,99427.48
2018-12-17T02:00:49.953Z,99424.41
2018-12-17T02:03:19.919Z,99429.75
2018-12-17T02:05:49.578Z,99418.69
2018-12-17T02:08:19.635Z,99417.87
2018-12-17T02:10:49.860Z,99419.61
2018-12-17T02:13:19.613Z,99416.36
2018-12-17T02:15:49.460Z,99414.09
2018-12-17T02:18:19.460Z,99336.32
2018-12-17T02:20:49.248Z,99418.95
2018-12-17T02:23:18.858Z,99417.98
2018-12-17T02:25:48.772Z,99417.17
2018-12-17T02:28:18.442Z,99419.29
2018-12-17T02:30:48.004Z,99432.31
2018-12-17T02:33:17.855Z,99424.08
2018-12-17T02:35:47.536Z,99430.94
2018-12-17T02:38:17.302Z,99430.45
2018-12-17T02:40:47.163Z,99408.31
2018-12-17T02:43:16.830Z,99439.45
2018-12-17T02:45:46.501Z,99437.17
2018-12-17T02:48:16.768Z,99438.59
2018-12-17T02:50:46.698Z,99437.17
2018-12-17T02:53:16.811Z,99445.41
2018-12-17T02:55:46.976Z,99440.87
2018-12-17T02:58:17.600Z,99449.47
2018-12-17T03:00:47.886Z,99451.73
2018-12-17T03:03:17.748Z,99452.75
2018-12-17T03:05:47.573Z,99459.23
2018-12-17T03:08:17.740Z,99453.44
2018-12-17T03:10:47.535Z,99463.50
2018-12-17T03:13:18.054Z,99466.22
2018-12-17T03:15:47.781Z,99462.81
2018-12-17T03:18:17.892Z,99469.30
2018-12-17T03:20:47.330Z,99470.44
2018-12-17T03:23:17.064Z,99468.33
2018-12-17T03:25:47.490Z,99471.57
2018-12-17T03:28:18.575Z,99472.22
2018-12-17T03:30:48.311Z,99471.25
2018-12-17T03:33:19.423Z,99461.52
2018-12-17T03:35:49.045Z,99479.20
2018-12-17T03:38:18.637Z,99475.50
2018-12-17T03:40:49.001Z,99471.90
2018-12-17T03:43:19.555Z,99473.72
2018-12-17T03:45:49.277Z,99464.15
2018-12-17T03:48:19.955Z,99471.16
2018-12-17T03:50:49.343Z,99480.57
2018-12-17T03:53:18.892Z,99475.77
2018-12-17T03:55:49.006Z,99479.24
2018-12-17T03:58:18.933Z,99483.52
2018-12-17T04:00:48.463Z,99482.11
2018-12-17T04:03:18.748Z,99494.96
2018-12-17T04:05:48.248Z,99494.98
2018-12-17T04:08:18.509Z,99502.59
2018-12-17T04:10:48.860Z,99507.48
2018-12-17T04:13:21.045Z,99503.75
2018-12-17T04:15:50.748Z,99503.11
2018-12-17T04:18:21.306Z,99503.89
2018-12-17T04:20:51.025Z,99511.98
2018-12-17T04:29:49.628Z,99506.28
2018-12-17T04:32:19.923Z,99524.97
2018-12-17T04:34:49.693Z,99529.67
2018-12-17T04:37:19.470Z,99525.44
2018-12-17T04:39:49.049Z,99530.28
2018-12-17T04:42:19.338Z,99388.95
2018-12-17T04:44:49.123Z,99538.84
2018-12-17T04:47:18.525Z,99543.36
2018-12-17T04:49:48.207Z,99542.23
2018-12-17T04:52:17.821Z,99541.73
2018-12-17T04:54:47.560Z,99541.59
2018-12-17T04:57:17.340Z,99545.63
2018-12-17T04:59:46.934Z,99549.36
2018-12-17T05:02:16.282Z,99550.98
2018-12-17T05:04:46.334Z,99543.03
2018-12-17T05:07:16.503Z,99549.67
2018-12-17T05:09:46.270Z,99558.45
2018-12-17T05:12:20.026Z,99563.94
2018-12-17T05:14:49.526Z,99565.23
2018-12-17T05:17:19.343Z,99569.45
2018-12-17T05:19:49.732Z,99555.55
2018-12-17T05:22:19.840Z,99579.51
2018-12-17T05:24:49.452Z,99582.42
2018-12-17T05:27:19.601Z,99577.25
2018-12-17T05:29:49.056Z,99592.13
2018-12-17T05:32:18.777Z,99595.86
2018-12-17T05:34:48.978Z,99597.63
2018-12-17T05:37:20.053Z,99598.60
2018-12-17T05:39:49.942Z,99600.73
2018-12-17T05:42:20.106Z,99605.59
2018-12-17T05:44:49.570Z,99612.56
2018-12-17T05:47:19.262Z,99612.25
2018-12-17T05:49:49.278Z,99606.59
2018-12-17T05:52:18.611Z,99610.97
2018-12-17T05:54:48.423Z,99615.83
2018-12-17T05:57:18.036Z,99624.92
2018-12-17T05:59:47.561Z,99629.94
2018-12-17T06:02:17.855Z,99633.99
2018-12-17T06:04:47.957Z,99643.07
2018-12-17T06:07:18.314Z,99638.85
2018-12-17T06:09:47.996Z,99644.85
2018-12-17T06:12:17.777Z,99638.35
2018-12-17T06:14:47.176Z,99645.01
2018-12-17T06:17:16.727Z,99650.33
2018-12-17T06:19:46.705Z,99650.83
2018-12-17T06:22:16.028Z,99652.75
2018-12-17T06:24:45.395Z,99656.33
2018-12-17T06:27:14.788Z,99656.97
2018-12-17T06:29:44.470Z,99653.23
2018-12-17T06:32:14.039Z,99652.72
2018-12-17T06:34:43.434Z,99644.30
2018-12-17T06:37:13.855Z,99647.52
2018-12-17T06:39:44.062Z,99644.75
2018-12-17T06:42:13.857Z,99646.17
2018-12-17T06:44:44.297Z,99652.38
2018-12-17T06:47:15.040Z,99662.59
2018-12-17T06:49:44.696Z,99663.09
2018-12-17T06:52:14.922Z,99664.20
2018-12-17T06:54:44.618Z,99664.52
2018-12-17T06:57:14.896Z,99672.98
2018-12-17T06:59:45.047Z,99677.84
2018-12-17T07:02:15.966Z,99681.61
2018-12-17T07:04:46.138Z,99683.55
2018-12-17T07:07:16.077Z,99697.97
2018-12-17T07:09:46.403Z,99696.64
2018-12-17T07:12:16.813Z,99700.38
2018-12-17T07:14:46.477Z,99701.66
2018-12-17T07:17:16.418Z,99701.64
2018-12-17T07:19:46.451Z,99702.14
2018-12-17T07:22:16.244Z,99704.06
2018-12-17T07:24:46.270Z,99711.36
2018-12-17T07:27:15.616Z,99706.49
2018-12-17T07:29:49.803Z,99699.50
2018-12-17T07:32:16.815Z,99708.89
2018-12-17T07:34:46.937Z,99707.43
2018-12-17T07:37:18.041Z,99720.25
2018-12-17T07:39:48.784Z,99713.44
2018-12-17T07:42:18.456Z,99717.50
2018-12-17T07:44:48.458Z,99719.09
2018-12-17T07:47:18.056Z,99717.79
2018-12-17T07:49:47.628Z,99717.96
2018-12-17T07:52:18.002Z,99719.89
2018-12-17T07:54:47.895Z,99724.25
2018-12-17T07:57:17.790Z,99726.17
2018-12-17T07:59:47.921Z,99730.06
2018-12-17T08:02:17.990Z,99731.67
2018-12-17T08:04:47.585Z,99734.40
2018-12-17T08:07:17.297Z,99734.21
2018-12-17T08:09:46.839Z,99732.56
2018-12-17T08:12:16.785Z,99744.55
2018-12-17T08:14:46.875Z,99738.02
2018-12-17T08:17:17.186Z,99735.39
2018-12-17T08:19:47.161Z,99737.30
2018-12-17T08:22:16.895Z,99739.88
2018-12-17T08:24:46.339Z,99746.05
2018-12-17T08:27:15.871Z,99762.26
2018-12-17T08:29:45.558Z,99752.34
2018-12-17T08:32:18.031Z,99739.96
2018-12-17T08:34:47.435Z,99746.46
2018-12-17T08:37:16.975Z,99754.95
2018-12-17T08:39:46.739Z,99758.03
2018-12-17T08:42:16.796Z,99759.50
2018-12-17T08:44:46.327Z,99764.21
2018-12-17T08:47:15.728Z,99763.88
2018-12-17T08:49:46.023Z,99774.61
2018-12-17T08:52:15.492Z,99770.55
2018-12-17T08:54:45.411Z,99776.72
2018-12-17T08:57:16.975Z,99760.22
2018-12-17T08:59:46.857Z,99782.54
2018-12-17T09:02:17.589Z,99795.54
2018-12-17T09:04:47.019Z,99797.81
2018-12-17T09:07:18.009Z,99802.66
2018-12-17T09:09:48.109Z,99808.34
2018-12-17T09:12:18.312Z,99803.47
2018-12-17T09:14:47.725Z,99808.28
2018-12-17T09:17:17.586Z,99808.60
2018-12-17T09:19:47.030Z,99808.04
2018-12-17T09:22:16.887Z,99811.00
2018-12-17T09:24:47.444Z,99813.08
2018-12-17T09:27:17.768Z,99805.56
2018-12-17T09:29:47.334Z,99812.18
2018-12-17T09:32:18.661Z,99814.08
2018-12-17T09:34:48.426Z,99812.81
2018-12-17T09:37:19.557Z,99815.10
2018-12-17T09:39:49.447Z,99805.88
2018-12-17T09:42:19.004Z,99805.27
2018-12-17T09:44:48.764Z,99803.52
2018-12-17T09:47:18.144Z,99810.14
2018-12-17T09:49:47.520Z,99801.83
2018-12-17T09:52:17.172Z,99802.75
2018-12-17T09:54:46.777Z,99811.63
2018-12-17T09:57:16.341Z,99815.16
2018-12-17T09:59:46.144Z,99765.16
2018-12-17T10:02:15.674Z,99810.70
2018-12-17T10:04:45.277Z,99812.80
2018-12-17T10:07:15.425Z,99801.30
2018-12-17T10:09:45.272Z,99806.86
2018-12-17T10:12:14.743Z,99803.64
2018-12-17T10:14:44.922Z,99803.15
2018-12-17T10:17:14.937Z,99802.31
2018-12-17T10:19:44.481Z,99802.56
2018-12-17T10:22:14.657Z,99813.52
2018-12-17T10:24:44.257Z,99803.22
2018-12-17T10:27:13.716Z,99795.41
2018-12-17T10:29:43.418Z,99803.11
2018-12-17T10:32:12.895Z,99798.84
2018-12-17T10:34:45.152Z,99798.53
2018-12-17T10:37:15.794Z,99798.42
2018-12-17T10:39:45.309Z,99795.38
2018-12-17T10:42:15.326Z,99713.48
2018-12-17T10:44:45.197Z,99797.87
2018-12-17T10:47:14.583Z,99710.38
2018-12-17T10:49:44.167Z,99795.75
2018-12-17T10:52:13.509Z,99798.47
2018-12-17T10:54:43.554Z,99803.02
2018-12-17T10:57:14.002Z,99793.68
2018-12-17T10:59:43.585Z,99696.80
2018-12-17T11:02:18.532Z,99789.56
2018-12-17T11:04:53.963Z,99786.14
2018-12-17T11:07:24.825Z,99790.05
2018-12-17T11:09:54.901Z,99791.89
2018-12-17T11:12:24.548Z,99784.54
2018-12-17T11:14:54.295Z,99787.84
2018-12-17T11:17:23.689Z,99789.33
2018-12-17T11:19:54.051Z,99789.33
2018-12-17T11:22:24.831Z,99786.10
2018-12-17T11:24:55.257Z,99784.12
2018-12-17T11:27:24.671Z,99780.34
2018-12-17T11:29:54.221Z,99782.44
2018-12-17T11:32:24.362Z,99773.68
2018-12-17T11:34:54.721Z,99773.91
2018-12-17T11:37:26.394Z,99768.95
2018-12-17T11:39:56.469Z,99774.59
2018-12-17T11:42:26.710Z,99759.10
2018-12-17T11:44:57.973Z,99758.56
2018-12-17T11:47:28.402Z,99760.19
2018-12-17T11:49:58.390Z,99754.76
2018-12-17T11:52:28.032Z,99755.11
2018-12-17T11:54:57.546Z,99756.50
2018-12-17T11:57:38.438Z,99761.06
2018-12-17T12:00:08.770Z,99755.08
2018-12-17T12:02:40.377Z,99756.32
2018-12-17T12:05:10.103Z,99756.02
2018-12-17T12:07:39.744Z,99769.10
2018-12-17T12:10:11.623Z,99763.16
2018-12-17T12:12:42.146Z,99768.02
2018-12-17T12:15:12.588Z,99761.38
2018-12-17T12:17:42.093Z,99763.81
2018-12-17T12:20:12.588Z,99768.45
2018-12-17T12:22:42.902Z,99767.34
2018-12-17T12:25:12.629Z,99768.12
2018-12-17T12:27:42.585Z,99766.43
2018-12-17T12:30:13.076Z,99767.22
2018-12-17T12:32:43.123Z,99775.62
2018-12-17T12:35:14.839Z,99771.70
2018-12-17T12:37:44.593Z,99772.51
2018-12-17T12:40:14.505Z,99767.95
2018-12-17T12:42:51.362Z,99682.20
2018-12-17T12:45:16.822Z,99778.33
2018-12-17T12:47:47.400Z,99773.40
2018-12-17T12:50:18.643Z,99780.56
2018-12-17T12:52:48.730Z,99733.19
2018-12-17T12:55:18.940Z,99779.94
2018-12-17T12:57:50.601Z,99679.73
2018-12-17T13:00:20.303Z,99781.13
2018-12-17T13:02:51.062Z,99774.55
2018-12-17T13:05:20.778Z,99780.07
2018-12-17T13:07:51.619Z,99786.19
2018-12-17T13:10:27.532Z,99718.21
2018-12-17T13:12:57.316Z,99794.95
2018-12-17T13:15:26.802Z,99797.61
2018-12-17T13:18:00.051Z,99799.72
2018-12-17T13:20:29.846Z,99797.66
2018-12-17T13:22:59.177Z,99804.39
2018-12-17T13:25:38.904Z,99805.05
2018-12-17T13:28:09.515Z,99806.02
2018-12-17T13:30:41.894Z,99803.09
2018-12-17T13:33:11.858Z,99812.03
2018-12-17T13:35:43.576Z,99814.43
2018-12-17T13:38:12.947Z,99817.08
2018-12-17T13:40:42.619Z,99825.11
2018-12-17T13:43:12.670Z,99825.17
2018-12-17T13:48:26.769Z,99706.84
2018-12-17T13:51:01.362Z,99830.37
2018-12-17T13:53:34.788Z,99841.63
2018-12-17T13:56:06.568Z,99841.00
2018-12-17T13:58:38.634Z,99835.33
2018-12-17T14:01:12.192Z,99839.61
2018-12-17T14:03:44.014Z,99841.36
2018-12-17T14:06:17.324Z,99851.01
2018-12-17T14:08:47.488Z,99848.95
2018-12-17T14:11:17.177Z,99859.17
2018-12-17T14:13:47.249Z,99865.30
2018-12-17T14:16:20.553Z,99863.36
2018-12-17T14:18:56.726Z,99870.03
2018-12-17T14:21:32.388Z,99864.56
2018-12-17T14:24:06.189Z,99862.50
2018-12-17T14:26:36.953Z,99872.22
2018-12-17T14:29:10.742Z,99866.52
2018-12-17T14:31:40.422Z,99860.84
2018-12-17T14:34:14.000Z,99872.73
2018-12-17T14:36:43.582Z,99869.73
2018-12-17T14:39:19.363Z,99874.55
2018-12-17T14:41:53.564Z,99880.27
2018-12-17T14:44:31.077Z,99879.60
2018-12-17T14:47:08.320Z,99890.55
2018-12-17T14:49:47.325Z,99893.97
2018-12-17T14:52:18.431Z,99893.03
2018-12-17T14:54:55.990Z,99897.08
2018-12-17T14:57:35.580Z,99907.02
2018-12-17T15:00:12.050Z,99907.94
2018-12-17T15:02:43.017Z,99903.00
2018-12-17T15:05:16.071Z,99905.11
2018-12-17T15:07:57.035Z,99833.02
2018-12-17T15:10:31.479Z,99914.91
2018-12-17T15:13:07.721Z,99918.19
2018-12-17T15:18:24.402Z,99926.41
2018-12-17T15:20:59.321Z,99915.32
2018-12-17T15:23:35.182Z,99935.39
2018-12-17T15:26:05.434Z,99934.50
2018-12-17T15:28:42.072Z,99936.59
2018-12-17T15:31:12.835Z,99936.16
2018-12-17T15:33:44.887Z,99939.20
2018-12-17T15:36:15.073Z,99944.80
2018-12-17T15:38:45.127Z,99945.20
2018-12-17T15:41:16.520Z,99952.08
2018-12-17T15:43:46.592Z,99961.33
2018-12-17T15:46:16.056Z,99963.16
2018-12-17T15:48:45.691Z,99966.05
2018-12-17T15:51:17.215Z,99970.19
2018-12-17T15:53:46.839Z,99974.64
2018-12-17T15:56:19.296Z,99986.53
2018-12-17T15:58:49.230Z,99989.58
2018-12-17T16:01:22.047Z,99993.07
2018-12-17T16:03:52.755Z,100010.82
2018-12-17T16:06:23.455Z,100012.12
2018-12-17T16:08:55.738Z,100024.16
2018-12-17T16:11:27.838Z,100026.96
2018-12-17T16:14:00.410Z,100030.17
2018-12-17T16:16:31.392Z,100032.11
2018-12-17T16:19:04.746Z,100032.61
2018-12-17T16:21:37.228Z,100037.05
2018-12-17T16:24:09.896Z,100043.61
2018-12-17T16:26:41.484Z,100050.66
2018-12-17T16:29:13.694Z,100052.00
2018-12-17T16:31:45.399Z,100054.28
2018-12-17T16:34:16.853Z,100053.79
2018-12-17T16:36:49.663Z,100057.41
2018-12-17T16:39:21.806Z,100058.48
2018-12-17T16:41:52.259Z,100050.70
2018-12-17T16:44:28.307Z,100044.95
2018-12-17T16:46:59.279Z,100037.75
2018-12-17T16:49:29.536Z,99959.14
2018-12-17T16:52:02.313Z,100039.38
2018-12-17T16:54:34.454Z,100036.33
2018-12-17T16:57:06.285Z,100040.27
2018-12-17T16:59:38.718Z,100043.69
2018-12-17T17:02:09.461Z,99934.52
2018-12-17T17:04:40.765Z,100041.41
2018-12-17T17:07:12.305Z,100043.69
2018-12-17T17:09:43.998Z,100045.13
2018-12-17T17:12:16.916Z,100051.47
2018-12-17T17:14:48.421Z,100050.73
2018-12-17T17:17:27.655Z,100060.14
2018-12-17T17:20:00.892Z,100057.37
2018-12-17T17:22:33.502Z,100072.55
2018-12-17T17:25:06.996Z,100061.36
2018-12-17T17:27:38.829Z,100063.47
2018-12-17T17:30:13.087Z,100071.16
2018-12-17T17:32:43.855Z,100068.72
2018-12-17T17:35:15.801Z,100072.43
2018-12-17T17:37:46.198Z,100082.85
2018-12-17T17:40:17.111Z,100076.98
2018-12-17T17:42:51.050Z,100079.76
2018-12-17T17:45:22.706Z,100080.54
2018-12-17T17:47:53.146Z,100082.95
2018-12-17T17:50:24.406Z,100003.25
2018-12-17T17:53:09.120Z,99962.89
2018-12-17T17:55:40.482Z,100088.84
2018-12-17T17:58:10.729Z,100096.14
2018-12-17T18:00:41.271Z,100108.67
2018-12-17T18:03:11.947Z,100100.34
2018-12-17T18:05:41.376Z,100096.91
2018-12-17T18:08:10.926Z,100103.56
2018-12-17T18:10:41.221Z,100097.53
2018-12-17T18:13:12.172Z,100103.84
2018-12-17T18:15:42.571Z,100115.58
2018-12-17T18:18:12.985Z,100115.37
2018-12-17T18:20:43.586Z,100112.13
2018-12-17T18:23:14.658Z,100119.48
2018-12-17T18:25:48.665Z,100118.19
2018-12-17T18:28:22.961Z,100127.14
2018-12-17T18:30:53.544Z,100134.34
2018-12-17T18:33:26.246Z,100139.40
2018-12-17T18:35:58.549Z,100138.39
2018-12-17T18:38:30.432Z,100149.47
2018-12-17T18:41:00.359Z,100145.52
2018-12-17T18:43:32.196Z,100151.52
2018-12-17T18:46:01.810Z,100161.29
2018-12-17T18:48:32.506Z,100151.84
2018-12-17T18:51:07.748Z,100156.04
2018-12-17T18:53:40.649Z,100165.17
2018-12-17T18:56:11.875Z,100159.13
2018-12-17T18:58:43.394Z,100166.80
2018-12-17T19:01:20.543Z,100164.06
2018-12-17T19:03:56.399Z,100163.70
2018-12-17T19:06:31.427Z,100161.25
2018-12-17T19:09:01.170Z,100163.25
2018-12-17T19:11:31.556Z,100165.72
2018-12-17T19:14:01.648Z,100174.00
2018-12-17T19:16:34.634Z,100173.67
2018-12-17T19:19:11.181Z,100179.25
2018-12-17T19:21:41.454Z,100184.43
2018-12-17T19:24:15.539Z,100175.98
2018-12-17T19:26:45.989Z,100179.51
2018-12-17T19:29:16.394Z,100175.63
2018-12-17T19:31:51.071Z,100185.25
2018-12-17T19:34:23.276Z,100189.16
2018-12-17T19:36:54.685Z,100199.39
2018-12-17T19:39:24.426Z,100194.66
2018-12-17T19:41:54.541Z,100192.84
2018-12-17T19:44:24.044Z,100199.16
2018-12-17T19:46:54.058Z,100195.57
2018-12-17T19:49:23.779Z,100193.97
2018-12-17T19:51:54.001Z,100192.47
2018-12-17T19:54:24.728Z,100198.02
2018-12-17T19:56:55.057Z,100137.22
2018-12-17T19:59:25.455Z,100212.23
2018-12-17T20:01:55.184Z,100219.56
2018-12-17T20:04:30.778Z,100226.05
2018-12-17T20:07:04.455Z,100226.90
2018-12-17T20:09:36.031Z,100159.69
2018-12-17T20:12:06.607Z,100231.17
2018-12-17T20:14:38.173Z,100231.30
2018-12-17T20:17:08.488Z,100230.48
2018-12-17T20:19:41.948Z,100251.52
2018-12-17T20:22:15.591Z,100236.19
2018-12-17T20:24:45.455Z,100238.28
2018-12-17T20:27:20.798Z,100244.57
2018-12-17T20:29:52.952Z,100240.69
2018-12-17T20:32:23.641Z,100247.57
2018-12-17T20:34:54.534Z,100241.41
2018-12-17T20:37:24.402Z,100244.02
2018-12-17T20:39:54.858Z,100241.89
2018-12-17T20:42:26.993Z,100242.52
2018-12-17T20:44:57.429Z,100243.52
2018-12-17T20:47:32.928Z,100252.16
2018-12-17T20:50:07.542Z,100248.74
2018-12-17T20:52:37.665Z,100262.92
2018-12-17T20:55:10.358Z,100259.85
2018-12-17T20:57:39.792Z,100274.01
2018-12-17T21:00:09.739Z,100269.17
2018-12-17T21:02:39.158Z,100270.66
2018-12-17T21:05:09.182Z,100266.59
2018-12-17T21:07:38.829Z,100271.48
2018-12-17T21:10:10.999Z,100271.66
2018-12-17T21:12:40.835Z,100278.65
2018-12-17T21:15:15.092Z,100270.84
2018-12-17T21:17:44.509Z,100274.11
2018-12-17T21:20:16.938Z,100280.30
2018-12-17T21:22:46.375Z,100273.15
2018-12-17T21:25:18.305Z,100273.64
2018-12-17T21:27:49.062Z,100272.34
2018-12-17T21:30:20.986Z,100272.13
2018-12-17T21:32:52.497Z,100276.99
2018-12-17T21:38:09.258Z,100280.11
2018-12-17T21:40:43.212Z,100269.52
2018-12-17T21:43:19.250Z,100270.01
2018-12-17T21:45:56.612Z,100171.38
2018-12-17T21:48:28.309Z,100285.47
2018-12-17T21:50:59.309Z,100284.44
2018-12-17T21:53:30.921Z,100292.77
2018-12-17T21:56:01.004Z,100298.48
2018-12-17T21:58:31.089Z,100297.87
2018-12-17T22:01:00.969Z,100299.02
2018-12-17T22:03:30.476Z,100292.82
2018-12-17T22:06:00.792Z,100299.80
2018-12-17T22:08:32.881Z,100301.77
2018-12-17T22:11:03.533Z,100306.16
2018-12-17T22:13:33.691Z,100310.75
2018-12-17T22:16:09.059Z,100313.21
2018-12-17T22:18:38.909Z,100311.56
2018-12-17T22:21:09.394Z,100305.20
2018-12-17T22:23:39.811Z,100310.56
2018-12-17T22:26:14.153Z,100315.91
2018-12-17T22:28:44.549Z,100317.70
2018-12-17T22:31:15.910Z,100318.90
2018-12-17T22:33:47.278Z,100317.59
2018-12-17T22:36:19.031Z,100321.80
2018-12-17T22:38:49.472Z,100318.23
2018-12-17T22:41:19.711Z,100326.66
2018-12-17T22:43:50.929Z,100328.12
2018-12-17T22:46:23.878Z,100322.59
2018-12-17T22:48:55.594Z,100318.04
2018-12-17T22:51:27.322Z,100329.88
2018-12-17T22:54:00.888Z,100332.00
2018-12-17T22:56:30.476Z,100324.18
2018-12-17T22:59:01.646Z,100327.95
2018-12-17T23:01:34.768Z,100318.36
2018-12-17T23:04:08.711Z,100322.66
2018-12-17T23:06:42.579Z,100321.05
2018-12-17T23:09:10.848Z,100323.83
2018-12-17T23:11:57.376Z,100327.08
2018-12-17T23:14:38.497Z,100337.32
2018-12-17T23:17:20.255Z,100329.84
2018-12-17T23:19:50.932Z,100336.66
2018-12-17T23:22:21.680Z,100343.31
2018-12-17T23:24:51.645Z,100338.73
2018-12-17T23:27:21.323Z,100243.80
2018-12-17T23:29:51.421Z,100234.86
2018-12-17T23:32:21.636Z,100339.09
2018-12-17T23:34:57.033Z,100342.31
2018-12-17T23:37:27.789Z,100338.58
2018-12-17T23:39:58.859Z,100336.92
2018-12-17T23:42:32.118Z,100334.31
2018-12-17T23:45:02.195Z,100335.28
2018-12-17T23:47:32.547Z,100327.16
2018-12-17T23:50:04.047Z,100328.80
2018-12-17T23:52:35.965Z,100329.44
2018-12-17T23:55:08.663Z,100329.13
2018-12-17T23:57:38.375Z,100342.03
